Time;durP1;ratioP1;P1;durP2;ratioP2;P2;SDS_P1;SDS_P2;PMS_P1;PMS_P2;Temp;Humidity;BMP_temperature;BMP_pressure;BME280_temperature;BME280_humidity;BME280_pressure;Samples;Min_cycle;Max_cycle;Signal;HPM_P1;HPM_P2
2022/07/16 00:01:54;;;;;;;9.60;3.53;;;;;;;18.98;100.00;96585.34;5051893;27;103260;-62
2022/07/16 00:04:21;;;;;;;3.57;3.27;;;;;;;18.91;100.00;96597.63;5051890;27;103471;-62
2022/07/16 00:06:48;;;;;;;5.00;3.60;;;;;;;18.80;100.00;96588.91;5053752;27;105355;-62
2022/07/16 00:09:16;;;;;;;4.33;4.03;;;;;;;18.87;100.00;96594.72;5052074;27;101896;-62
2022/07/16 00:11:43;;;;;;;6.00;4.47;;;;;;;18.39;100.00;96600.66;5052635;27;102421;-62
2022/07/16 00:14:12;;;;;;;4.93;4.33;;;;;;;17.77;100.00;96607.22;5072122;27;101734;-62
2022/07/16 00:16:39;;;;;;;4.53;4.20;;;;;;;17.62;100.00;96603.94;5072546;27;101806;-62
2022/07/16 00:19:19;;;;;;;5.87;4.73;;;;;;;17.41;100.00;96607.97;5072539;27;102535;-62
2022/07/16 00:21:48;;;;;;;4.87;4.47;;;;;;;17.13;100.00;96611.50;5071752;27;103086;-62
2022/07/16 00:24:15;;;;;;;5.63;4.90;;;;;;;17.63;100.00;96609.03;5072357;27;102055;-62
2022/07/16 00:26:42;;;;;;;4.80;4.40;;;;;;;17.95;100.00;96609.13;5072459;27;102910;-61
2022/07/16 00:29:12;;;;;;;4.63;4.17;;;;;;;18.31;100.00;96606.69;5056793;27;105096;-62
2022/07/16 00:31:40;;;;;;;4.80;4.10;;;;;;;18.46;100.00;96609.97;5072046;27;102328;-62
2022/07/16 00:34:08;;;;;;;5.77;5.10;;;;;;;17.81;100.00;96610.13;5071667;27;103185;-62
2022/07/16 00:36:37;;;;;;;6.43;4.43;;;;;;;17.51;100.00;96607.84;5072351;27;101912;-62
2022/07/16 00:39:05;;;;;;;5.70;3.90;;;;;;;17.67;100.00;96607.38;5053743;27;103739;-62
2022/07/16 00:41:33;;;;;;;4.80;3.73;;;;;;;17.99;100.00;96609.34;5071434;27;102751;-62
2022/07/16 00:44:02;;;;;;;4.07;3.67;;;;;;;18.06;100.00;96609.75;5053556;27;102010;-62
2022/07/16 00:46:31;;;;;;;7.93;4.47;;;;;;;18.27;100.00;96603.00;5053526;27;103499;-62
2022/07/16 00:48:59;;;;;;;4.37;3.97;;;;;;;18.16;100.00;96601.53;5052906;27;105326;-61
2022/07/16 00:51:27;;;;;;;4.40;4.00;;;;;;;17.41;100.00;96599.91;5075118;27;101937;-62
2022/07/16 00:53:56;;;;;;;4.20;3.70;;;;;;;17.20;100.00;96601.19;5071249;27;102003;-62
2022/07/16 00:56:24;;;;;;;5.70;3.90;;;;;;;17.76;100.00;96611.00;5071909;27;101692;-62
2022/07/16 00:58:53;;;;;;;4.90;4.07;;;;;;;18.01;100.00;96607.97;5053548;27;103818;-62
2022/07/16 01:01:20;;;;;;;4.03;3.73;;;;;;;18.42;100.00;96602.78;5052796;27;104021;-62
2022/07/16 01:03:50;;;;;;;4.23;3.83;;;;;;;18.56;100.00;96598.22;5052948;27;102048;-62
2022/07/16 01:06:18;;;;;;;5.50;3.90;;;;;;;18.38;100.00;96601.75;5071561;27;103036;-62
2022/07/16 01:08:47;;;;;;;5.17;4.10;;;;;;;18.07;100.00;96597.91;5071050;27;103157;-62
2022/07/16 01:11:17;;;;;;;5.03;4.30;;;;;;;18.16;100.00;96596.16;5070929;27;102126;-61
2022/07/16 01:13:45;;;;;;;5.13;4.63;;;;;;;17.53;100.00;96594.91;5074006;27;102289;-62
2022/07/16 01:16:12;;;;;;;5.07;4.57;;;;;;;17.37;100.00;96599.66;5071540;27;101989;-62
2022/07/16 01:18:41;;;;;;;4.60;4.20;;;;;;;17.01;100.00;96603.03;5071831;27;102285;-62
2022/07/16 01:21:11;;;;;;;6.50;4.90;;;;;;;16.82;100.00;96605.66;5052276;27;106809;-62
2022/07/16 01:23:39;;;;;;;6.10;4.43;;;;;;;16.85;100.00;96598.91;5052997;27;101987;-62
2022/07/16 01:26:07;;;;;;;5.13;4.47;;;;;;;17.10;100.00;96609.38;5052801;27;103696;-62
2022/07/16 01:28:34;;;;;;;5.30;4.80;;;;;;;17.48;100.00;96605.72;5070642;27;104141;-62
2022/07/16 01:31:02;;;;;;;9.30;4.80;;;;;;;17.83;100.00;96606.06;5071221;27;101818;-62
2022/07/16 01:33:31;;;;;;;5.63;5.13;;;;;;;17.69;100.00;96607.06;5074226;27;102269;-62
2022/07/16 01:36:00;;;;;;;5.13;4.60;;;;;;;17.41;100.00;96608.78;5071270;27;102056;-62
2022/07/16 01:38:27;;;;;;;5.37;4.87;;;;;;;17.53;100.00;96602.97;5071132;27;102693;-62
2022/07/16 01:40:56;;;;;;;6.00;5.40;;;;;;;17.24;100.00;96604.91;5070408;27;103139;-62
2022/07/16 01:43:27;;;;;;;6.97;5.33;;;;;;;17.21;100.00;96602.78;5071081;27;101866;-62
2022/07/16 01:45:55;;;;;;;5.17;4.77;;;;;;;17.07;100.00;96601.91;5071202;27;104133;-62
2022/07/16 01:48:22;;;;;;;5.40;4.50;;;;;;;17.34;100.00;96602.13;5052102;27;104958;-62
2022/07/16 01:50:50;;;;;;;4.80;4.40;;;;;;;17.56;100.00;96610.47;5052559;27;101904;-62
2022/07/16 01:53:18;;;;;;;6.27;4.50;;;;;;;17.74;100.00;96609.69;5071286;27;101673;-62
2022/07/16 01:55:46;;;;;;;6.70;6.10;;;;;;;17.33;100.00;96617.44;5055367;27;105810;-62
2022/07/16 01:58:16;;;;;;;6.00;5.20;;;;;;;16.65;100.00;96610.66;5071083;27;102197;-62
2022/07/16 02:00:45;;;;;;;4.77;4.37;;;;;;;16.81;100.00;96616.66;5070087;27;103798;-62
2022/07/16 02:03:12;;;;;;;5.80;4.80;;;;;;;17.18;100.00;96614.13;5070793;27;101980;-62
2022/07/16 02:05:39;;;;;;;4.67;4.20;;;;;;;17.48;100.00;96616.47;5070756;27;102414;-62
2022/07/16 02:08:07;;;;;;;6.37;4.97;;;;;;;17.63;100.00;96616.28;5070258;27;103202;-62
2022/07/16 02:10:36;;;;;;;4.97;4.40;;;;;;;17.54;100.00;96618.03;5052138;27;101939;-62
2022/07/16 02:13:03;;;;;;;4.60;4.20;;;;;;;17.78;100.00;96618.78;5070072;27;102625;-62
2022/07/16 02:15:33;;;;;;;5.53;4.47;;;;;;;17.81;100.00;96619.00;5070178;27;102839;-62
2022/07/16 02:18:00;;;;;;;4.60;3.80;;;;;;;17.84;100.00;96620.31;5055630;27;102364;-62
2022/07/16 02:20:27;;;;;;;4.90;4.37;;;;;;;17.78;100.00;96622.28;5051489;27;105874;-62
2022/07/16 02:22:57;;;;;;;4.80;4.40;;;;;;;17.87;100.00;96628.59;5070648;27;101691;-62
2022/07/16 02:25:24;;;;;;;4.90;4.50;;;;;;;17.73;100.00;96626.91;5073702;27;102962;-62
2022/07/16 02:28:10;;;;;;;5.47;4.37;;;;;;;17.44;100.00;96621.63;5073828;27;102568;-62
2022/07/16 02:30:41;;;;;;;4.87;4.37;;;;;;;17.79;100.00;96631.94;5074383;27;101964;-62
2022/07/16 02:33:10;;;;;;;4.37;4.07;;;;;;;17.83;100.00;96626.78;5074374;27;102546;-62
2022/07/16 02:35:38;;;;;;;4.27;3.90;;;;;;;17.50;100.00;96633.94;5055112;27;105499;-62
2022/07/16 02:38:06;;;;;;;4.40;4.00;;;;;;;17.58;100.00;96632.50;5055663;27;101909;-62
2022/07/16 02:40:34;;;;;;;4.13;3.83;;;;;;;17.41;100.00;96629.47;5076917;27;102519;-62
2022/07/16 02:43:03;;;;;;;4.70;3.83;;;;;;;17.60;100.00;96630.34;5073750;27;101816;-62
2022/07/16 02:45:30;;;;;;;4.80;4.40;;;;;;;17.51;100.00;96630.19;5073894;27;103002;-62
2022/07/16 02:48:00;;;;;;;5.70;4.20;;;;;;;17.42;100.00;96634.56;5055000;27;106903;-62
2022/07/16 02:50:29;;;;;;;4.73;4.00;;;;;;;17.55;100.00;96635.78;5055204;27;102239;-62
2022/07/16 02:52:56;;;;;;;5.17;4.07;;;;;;;17.60;100.00;96638.41;5074146;27;102325;-62
2022/07/16 02:55:23;;;;;;;6.43;4.20;;;;;;;17.62;100.00;96630.84;5054693;27;105496;-62
2022/07/16 02:57:51;;;;;;;4.43;3.87;;;;;;;17.75;100.00;96638.19;5074056;27;102107;-62
2022/07/16 03:00:18;;;;;;;5.30;3.93;;;;;;;17.72;100.00;96642.25;5073870;27;102356;-62
2022/07/16 03:02:46;;;;;;;4.53;4.13;;;;;;;17.35;100.00;96649.41;5076244;27;101706;-62
2022/07/16 03:05:15;;;;;;;4.93;4.47;;;;;;;16.84;100.00;96645.66;5073321;27;102423;-62
2022/07/16 03:07:43;;;;;;;4.73;4.40;;;;;;;16.25;100.00;96645.84;5054698;27;106439;-62
2022/07/16 03:10:12;;;;;;;5.30;4.00;;;;;;;15.96;100.00;96649.56;5073582;27;101937;-62
2022/07/16 03:12:40;;;;;;;5.47;4.50;;;;;;;16.12;100.00;96659.06;5072959;27;103052;-62
2022/07/16 03:15:09;;;;;;;6.73;4.30;;;;;;;16.28;100.00;96663.25;5072984;27;103075;-62
2022/07/16 03:17:36;;;;;;;4.70;4.30;;;;;;;16.67;100.00;96659.50;5073403;27;102038;-62
2022/07/16 03:20:04;;;;;;;6.23;4.57;;;;;;;17.05;100.00;96661.28;5073470;27;102859;-62
2022/07/16 03:22:32;;;;;;;7.77;4.30;;;;;;;17.15;100.00;96661.19;5072832;27;102599;-62
2022/07/16 03:25:00;;;;;;;4.93;4.53;;;;;;;17.26;100.00;96661.88;5076662;27;101830;-62
2022/07/16 03:27:27;;;;;;;4.30;3.90;;;;;;;17.25;100.00;96662.97;5072938;27;102553;-62
2022/07/16 03:29:54;;;;;;;6.00;4.67;;;;;;;16.70;100.00;96655.44;5073178;27;101841;-62
2022/07/16 03:32:21;;;;;;;5.60;5.10;;;;;;;16.85;100.00;96664.16;5054877;27;105176;-62
2022/07/16 03:34:48;;;;;;;5.97;5.47;;;;;;;16.38;100.00;96663.19;5071966;27;102595;-62
2022/07/16 03:37:16;;;;;;;4.40;4.10;;;;;;;16.56;100.00;96665.25;5073051;27;101848;-62
2022/07/16 03:39:44;;;;;;;5.27;4.37;;;;;;;17.01;100.00;96660.25;5073080;27;102408;-62
2022/07/16 03:42:11;;;;;;;5.93;4.37;;;;;;;17.41;100.00;96669.81;5072398;27;102671;-62
2022/07/16 03:44:39;;;;;;;7.50;4.50;;;;;;;17.35;100.00;96666.34;5076410;27;102168;-61
2022/07/16 03:47:05;;;;;;;5.50;4.17;;;;;;;17.48;100.00;96667.56;5072436;27;102557;-62
2022/07/16 03:49:33;;;;;;;5.90;4.10;;;;;;;17.39;100.00;96664.72;5072986;27;101822;-62
2022/07/16 03:52:00;;;;;;;5.27;4.77;;;;;;;17.50;100.00;96668.09;5054208;27;104933;-62
2022/07/16 03:54:27;;;;;;;6.57;4.60;;;;;;;17.55;100.00;96668.03;5072242;27;102580;-62
2022/07/16 03:56:55;;;;;;;6.47;5.63;;;;;;;17.15;100.00;96669.25;5072842;27;102118;-62
2022/07/16 03:59:22;;;;;;;5.90;5.00;;;;;;;16.51;100.00;96676.03;5072942;27;102626;-62
2022/07/16 04:01:49;;;;;;;4.97;4.57;;;;;;;15.96;100.00;96677.16;5072128;27;102882;-62
2022/07/16 04:04:16;;;;;;;5.60;5.00;;;;;;;15.55;100.00;96686.50;5072398;27;101860;-62
2022/07/16 04:06:43;;;;;;;4.90;4.50;;;;;;;15.89;100.00;96691.94;5075660;27;102296;-62
2022/07/16 04:09:10;;;;;;;6.40;4.90;;;;;;;16.58;100.00;96695.31;5054188;27;101829;-62
2022/07/16 04:11:37;;;;;;;4.80;4.40;;;;;;;16.87;100.00;96702.31;5072139;27;102623;-62
2022/07/16 04:14:06;;;;;;;5.40;4.90;;;;;;;17.01;100.00;96702.47;5053293;27;107258;-62
2022/07/16 04:16:33;;;;;;;4.67;4.33;;;;;;;16.79;100.00;96699.44;5072297;27;101773;-62
2022/07/16 04:19:00;;;;;;;5.33;4.83;;;;;;;17.20;100.00;96693.41;5072652;27;102405;-62
2022/07/16 04:21:28;;;;;;;4.33;4.03;;;;;;;17.48;100.00;96697.97;5071934;27;102587;-62
2022/07/16 04:23:55;;;;;;;5.00;4.60;;;;;;;17.58;100.00;96692.47;5053790;27;101989;-62
2022/07/16 04:26:22;;;;;;;5.43;5.03;;;;;;;17.44;100.00;96688.06;5054003;27;104827;-62
2022/07/16 04:28:49;;;;;;;4.93;4.33;;;;;;;17.59;100.00;96691.38;5056797;27;105371;-62
2022/07/16 04:31:18;;;;;;;4.80;4.40;;;;;;;17.55;100.00;96692.25;5053913;27;105226;-62
2022/07/16 04:33:45;;;;;;;8.03;4.20;;;;;;;17.85;100.00;96691.88;5053054;27;105592;-62
2022/07/16 04:36:13;;;;;;;5.07;4.60;;;;;;;17.89;100.00;96696.41;5072103;27;101827;-62
2022/07/16 04:38:40;;;;;;;5.27;4.77;;;;;;;17.88;100.00;96699.38;5072099;27;102302;-62
2022/07/16 04:41:07;;;;;;;5.20;4.40;;;;;;;18.03;100.00;96704.56;5052896;27;105968;-62
2022/07/16 04:43:35;;;;;;;6.37;4.83;;;;;;;18.08;100.00;96704.47;5053607;27;101876;-62
2022/07/16 04:46:02;;;;;;;4.93;4.53;;;;;;;17.95;100.00;96710.56;5071291;27;102281;-62
2022/07/16 04:48:31;;;;;;;4.60;4.20;;;;;;;18.16;100.00;96706.53;5052326;27;105813;-62
2022/07/16 04:50:58;;;;;;;5.00;4.50;;;;;;;18.23;100.00;96701.56;5075501;27;101912;-62
2022/07/16 04:53:25;;;;;;;4.30;4.00;;;;;;;18.27;100.00;96697.22;5052939;27;105386;-62
2022/07/16 04:55:52;;;;;;;4.70;4.30;;;;;;;18.49;100.00;96700.97;5052972;27;101862;-62
2022/07/16 04:58:19;;;;;;;5.47;4.97;;;;;;;18.39;100.00;96709.19;5072156;27;103122;-62
2022/07/16 05:00:46;;;;;;;5.17;4.67;;;;;;;18.41;100.00;96709.69;5052771;27;106154;-62
2022/07/16 05:03:13;;;;;;;5.70;5.00;;;;;;;17.99;100.00;96709.69;5053274;27;101981;-62
2022/07/16 05:05:42;;;;;;;5.13;4.73;;;;;;;17.94;100.00;96714.34;5071596;27;102512;-62
2022/07/16 05:08:10;;;;;;;5.93;5.43;;;;;;;17.46;100.00;96713.59;5070931;27;102867;-62
2022/07/16 05:10:37;;;;;;;5.97;5.30;;;;;;;17.11;100.00;96718.50;5053203;27;101920;-62
2022/07/16 05:13:06;;;;;;;7.87;5.37;;;;;;;17.27;100.00;96719.94;5073827;27;102371;-62
2022/07/16 05:15:33;;;;;;;5.80;4.73;;;;;;;17.42;100.00;96727.88;5071730;27;101821;-62
2022/07/16 05:18:00;;;;;;;4.87;4.47;;;;;;;17.98;100.00;96728.84;5071588;27;102650;-62
2022/07/16 05:20:29;;;;;;;5.00;4.50;;;;;;;18.05;100.00;96726.59;5070715;27;104641;-62
2022/07/16 05:22:58;;;;;;;5.33;4.40;;;;;;;17.67;100.00;96733.78;5036362;27;101991;-62
2022/07/16 05:25:25;;;;;;;5.03;4.57;;;;;;;17.96;100.00;96733.69;5052823;27;105603;-62
2022/07/16 05:27:52;;;;;;;6.30;4.00;;;;;;;17.90;100.00;96735.66;5052371;27;105915;-62
2022/07/16 05:30:20;;;;;;;6.97;4.80;;;;;;;18.26;100.00;96731.41;5052685;27;102483;-62
2022/07/16 05:32:47;;;;;;;5.97;4.80;;;;;;;18.23;100.00;96728.50;5053102;27;103735;-61
2022/07/16 05:35:16;;;;;;;6.40;4.37;;;;;;;17.88;100.00;96737.03;5055505;27;101969;-61
2022/07/16 05:37:43;;;;;;;6.07;4.27;;;;;;;17.91;100.00;96729.19;5052845;27;105344;-62
2022/07/16 05:40:14;;;;;;;5.83;5.20;;;;;;;17.40;100.00;96725.47;5052066;27;105446;-62
2022/07/16 05:42:41;;;;;;;4.83;4.33;;;;;;;17.86;100.00;96733.81;5052536;27;101983;-62
2022/07/16 05:45:10;;;;;;;6.07;4.13;;;;;;;18.17;100.00;96730.47;5052590;27;105493;-62
2022/07/16 05:47:37;;;;;;;8.70;4.60;;;;;;;17.93;100.00;96736.97;5052125;27;106095;-61
2022/07/16 05:50:07;;;;;;;5.13;4.37;;;;;;;18.43;100.00;96734.41;5052602;27;101987;-62
2022/07/16 05:52:34;;;;;;;5.67;4.37;;;;;;;18.20;100.00;96734.47;5052479;27;105618;-61
2022/07/16 05:55:01;;;;;;;5.73;4.30;;;;;;;18.61;100.00;96733.63;5073543;27;102616;-62
2022/07/16 05:57:30;;;;;;;8.67;4.63;;;;;;;18.77;100.00;96734.19;5052298;27;104185;-65
2022/07/16 05:59:57;;;;;;;5.57;4.70;;;;;;;18.60;100.00;96733.94;5046579;27;105225;-64
2022/07/16 06:02:24;;;;;;;10.17;4.23;;;;;;;19.14;100.00;96734.91;5075320;27;102265;-66
2022/07/16 06:04:52;;;;;;;5.70;4.10;;;;;;;19.33;100.00;96734.88;5047417;27;105351;-68
2022/07/16 06:07:19;;;;;;;6.17;4.50;;;;;;;19.66;100.00;96733.72;5050265;27;107179;-65
2022/07/16 06:09:46;;;;;;;7.00;4.00;;;;;;;19.38;100.00;96734.78;5051973;27;101992;-66
2022/07/16 06:12:13;;;;;;;6.27;4.37;;;;;;;18.89;100.00;96729.16;5049304;27;105774;-64
2022/07/16 06:14:42;;;;;;;7.23;4.33;;;;;;;19.33;100.00;96734.88;5051013;27;105659;-65
2022/07/16 06:17:09;;;;;;;7.07;4.40;;;;;;;19.43;100.00;96742.81;5055158;27;102091;-66
2022/07/16 06:19:41;;;;;;;5.17;4.00;;;;;;;19.33;100.00;96742.97;5051721;27;105875;-66
2022/07/16 06:22:09;;;;;;;3.83;3.53;;;;;;;19.51;100.00;96734.03;5051838;27;102042;-63
2022/07/16 06:24:36;;;;;;;4.50;4.00;;;;;;;19.85;100.00;96737.16;5052369;27;105318;-66
2022/07/16 06:27:06;;;;;;;6.17;4.03;;;;;;;19.81;100.00;96738.84;5050716;27;105483;-65
2022/07/16 06:29:33;;;;;;;4.93;3.97;;;;;;;19.90;100.00;96742.44;5052132;27;101988;-66
2022/07/16 06:32:01;;;;;;;4.10;3.77;;;;;;;19.50;100.00;96737.84;5070132;27;102445;-66
2022/07/16 06:34:28;;;;;;;5.43;3.33;;;;;;;19.63;100.00;96743.22;5050180;27;105849;-66
2022/07/16 06:36:58;;;;;;;4.40;3.80;;;;;;;20.13;100.00;96752.25;5051293;27;101959;-66
2022/07/16 06:39:26;;;;;;;4.43;3.90;;;;;;;20.17;100.00;96745.16;5054528;27;104135;-66
2022/07/16 06:41:53;;;;;;;3.70;3.40;;;;;;;20.39;100.00;96756.03;5051523;27;102034;-66
2022/07/16 06:44:20;;;;;;;4.67;3.97;;;;;;;20.32;100.00;96752.94;5070137;27;102667;-66
2022/07/16 06:46:47;;;;;;;4.10;3.43;;;;;;;19.82;100.00;96748.53;5069032;27;103080;-66
2022/07/16 06:49:16;;;;;;;2.80;2.60;;;;;;;20.01;100.00;96754.63;5051582;27;101833;-66
2022/07/16 06:51:43;;;;;;;3.70;2.80;;;;;;;20.09;100.00;96746.66;5051473;27;104542;-66
2022/07/16 06:54:11;;;;;;;4.33;2.70;;;;;;;20.71;100.00;96753.94;5050916;27;105518;-66
2022/07/16 06:56:38;;;;;;;3.17;2.80;;;;;;;20.90;100.00;96759.19;5051178;27;101955;-66
2022/07/16 06:59:05;;;;;;;4.13;3.07;;;;;;;20.68;100.00;96757.25;5051630;27;105192;-66
2022/07/16 07:01:32;;;;;;;3.53;2.67;;;;;;;21.24;100.00;96756.72;5054325;27;105962;-66
2022/07/16 07:04:00;;;;;;;5.57;3.00;;;;;;;21.34;100.00;96765.41;5051195;27;105367;-66
2022/07/16 07:06:28;;;;;;;3.63;2.83;;;;;;;21.37;100.00;96764.00;5050395;27;105134;-66
2022/07/16 07:08:56;;;;;;;3.33;2.50;;;;;;;21.37;100.00;96758.59;5051370;27;101946;-66
2022/07/16 07:11:23;;;;;;;3.77;2.90;;;;;;;20.80;100.00;96767.50;5054324;27;105543;-66
2022/07/16 07:13:50;;;;;;;2.60;2.40;;;;;;;21.29;100.00;96760.13;5054052;27;105503;-66
2022/07/16 07:16:17;;;;;;;3.37;2.70;;;;;;;20.90;100.00;96761.91;5054399;27;101859;-66
2022/07/16 07:18:45;;;;;;;5.07;2.90;;;;;;;20.44;100.00;96761.31;5054894;27;104911;-66
2022/07/16 07:21:12;;;;;;;3.53;2.60;;;;;;;20.95;100.00;96761.78;5072185;27;104253;-66
2022/07/16 07:23:41;;;;;;;5.87;2.47;;;;;;;21.56;100.00;96765.38;5058007;27;101971;-67
2022/07/16 07:26:08;;;;;;;4.27;2.43;;;;;;;21.67;99.01;96763.19;5053727;27;105383;-66
2022/07/16 07:28:35;;;;;;;2.63;2.43;;;;;;;21.63;97.90;96763.00;5054639;27;101826;-66
2022/07/16 07:31:02;;;;;;;2.40;2.17;;;;;;;21.85;100.00;96764.91;5054425;27;105209;-66
2022/07/16 07:33:29;;;;;;;3.33;2.40;;;;;;;22.16;99.31;96754.81;5053410;27;105432;-66
2022/07/16 07:35:56;;;;;;;4.17;2.57;;;;;;;22.36;100.00;96754.22;5072936;27;101835;-67
2022/07/16 07:38:24;;;;;;;5.00;2.50;;;;;;;22.56;96.01;96757.16;5072645;27;102308;-66
2022/07/16 07:40:52;;;;;;;3.63;2.60;;;;;;;22.68;87.46;96756.53;5072148;27;102674;-66
2022/07/16 07:43:19;;;;;;;2.80;2.03;;;;;;;22.45;85.31;96760.50;5076159;27;101783;-66
2022/07/16 07:45:46;;;;;;;5.27;2.20;;;;;;;22.61;84.41;96754.28;5071919;27;102611;-66
2022/07/16 07:48:14;;;;;;;2.40;2.07;;;;;;;22.57;83.41;96757.97;5072906;27;101893;-66
2022/07/16 07:50:41;;;;;;;3.00;1.93;;;;;;;22.49;79.58;96761.44;5053808;27;105212;-67
2022/07/16 07:53:08;;;;;;;2.27;1.70;;;;;;;22.53;65.89;96751.56;5072383;27;102752;-66
2022/07/16 07:55:37;;;;;;;6.93;2.17;;;;;;;22.71;75.00;96750.47;5072482;27;102498;-66
2022/07/16 07:58:06;;;;;;;3.97;2.23;;;;;;;23.12;77.27;96751.59;5072854;27;102460;-66
2022/07/16 08:00:33;;;;;;;4.63;2.27;;;;;;;22.91;68.01;96755.25;5071944;27;102610;-66
2022/07/16 08:03:00;;;;;;;1.83;1.70;;;;;;;22.94;63.28;96755.41;5053893;27;101944;-66
2022/07/16 08:05:28;;;;;;;4.20;1.90;;;;;;;22.74;50.56;96758.78;5075070;27;102309;-66
2022/07/16 08:07:55;;;;;;;3.27;1.70;;;;;;;;;;5053948;27;101771;-67
2022/07/16 08:10:22;;;;;;;7.50;1.97;;;;;;;22.73;55.91;96757.16;5053508;27;104482;-66
2022/07/16 08:12:49;;;;;;;1.73;1.60;;;;;;;22.97;55.27;96762.13;5049126;27;105048;-66
2022/07/16 08:15:18;;;;;;;3.63;1.80;;;;;;;22.82;52.64;96757.16;5051920;27;101819;-66
2022/07/16 08:17:45;;;;;;;2.33;1.60;;;;;;;22.75;58.91;96762.28;5050607;27;105283;-66
2022/07/16 08:20:14;;;;;;;3.00;2.17;;;;;;;23.23;59.23;96760.22;5050985;27;103337;-66
2022/07/16 08:22:42;;;;;;;2.43;1.87;;;;;;;23.49;60.49;96764.47;5050145;27;101889;-66
2022/07/16 08:27:55;;;;;;;1.73;1.60;;;;;;;23.21;59.92;96767.91;5052950;27;105209;-66
2022/07/16 08:30:23;;;;;;;3.00;1.60;;;;;;;22.94;53.75;96762.78;5050094;27;105011;-66
2022/07/16 08:32:50;;;;;;;1.50;1.40;;;;;;;22.82;52.17;96765.31;5049360;27;105637;-66
2022/07/16 08:35:18;;;;;;;1.40;1.30;;;;;;;23.47;63.04;96763.19;5050174;27;101978;-66
2022/07/16 08:37:46;;;;;;;1.90;1.40;;;;;;;23.72;61.20;96757.72;5049843;27;105215;-66
2022/07/16 08:40:15;;;;;;;2.77;1.73;;;;;;;24.16;59.15;96754.53;5049339;27;105405;-66
2022/07/16 08:42:43;;;;;;;1.47;1.30;;;;;;;24.11;53.85;96764.78;5050084;27;101862;-66
2022/07/16 08:45:12;;;;;;;1.93;1.50;;;;;;;24.36;59.02;96767.34;5051448;27;102474;-67
2022/07/16 08:47:40;;;;;;;2.73;1.90;;;;;;;24.37;51.92;96768.16;5050508;27;102526;-66
2022/07/16 08:50:11;;;;;;;1.60;1.40;;;;;;;24.74;47.48;96762.66;5054726;27;101811;-67
2022/07/16 08:52:40;;;;;;;2.47;1.70;;;;;;;23.22;48.65;96769.50;5049281;27;104101;-67
2022/07/16 08:55:09;;;;;;;1.50;1.40;;;;;;;24.06;59.10;96759.50;5049658;27;102289;-66
2022/07/16 08:57:38;;;;;;;2.23;1.80;;;;;;;24.06;52.58;96756.81;5049639;27;103557;-67
2022/07/16 09:00:08;;;;;;;1.87;1.67;;;;;;;23.71;47.16;96772.41;5050377;27;102484;-67
2022/07/16 09:02:37;;;;;;;4.80;1.83;;;;;;;24.14;50.43;96764.91;5051349;27;101834;-67
2022/07/16 09:05:07;;;;;;;2.10;1.70;;;;;;;23.90;47.17;96769.31;5050770;27;102608;-67
2022/07/16 09:07:35;;;;;;;2.20;1.90;;;;;;;23.48;53.55;96757.44;5050372;27;102538;-67
2022/07/16 09:10:01;;;;;;;3.50;2.00;;;;;;;23.98;56.24;96766.56;5051088;27;101823;-67
2022/07/16 09:12:34;;;;;;;2.07;1.60;;;;;;;23.84;54.01;96759.75;5058397;27;102905;-67
2022/07/16 09:15:01;;;;;;;3.63;2.20;;;;;;;24.16;50.38;96756.44;5071553;27;101997;-67
2022/07/16 09:17:28;;;;;;;4.80;1.80;;;;;;;23.54;51.54;96760.81;5071329;27;102337;-67
2022/07/16 09:19:57;;;;;;;2.37;1.87;;;;;;;23.57;48.65;96765.56;5052610;27;102634;-67
2022/07/16 09:22:26;;;;;;;2.80;2.23;;;;;;;24.15;50.76;96765.72;5052524;27;101910;-67
2022/07/16 09:24:54;;;;;;;2.50;1.60;;;;;;;24.59;53.10;96768.69;5052618;27;103734;-67
2022/07/16 09:27:25;;;;;;;3.73;1.70;;;;;;;25.00;46.48;96760.53;5070249;27;102697;-67
2022/07/16 09:29:54;;;;;;;3.17;1.97;;;;;;;25.09;48.29;96769.44;5052380;27;102120;-66
2022/07/16 09:32:28;;;;;;;3.47;2.10;;;;;;;23.78;48.13;96761.03;5070501;27;102453;-67
2022/07/16 09:35:04;;;;;;;3.43;2.13;;;;;;;24.42;48.69;96763.31;5074344;27;102549;-67
2022/07/16 09:37:48;;;;;;;2.73;1.70;;;;;;;24.93;49.53;96764.91;5071323;27;102361;-67
2022/07/16 09:40:28;;;;;;;1.97;1.77;;;;;;;25.24;52.25;96754.41;5070760;27;102699;-67
2022/07/16 09:42:56;;;;;;;2.63;1.87;;;;;;;25.40;52.46;96752.69;5071465;27;102014;-67
2022/07/16 09:45:23;;;;;;;5.07;2.03;;;;;;;24.56;48.40;96757.63;5071424;27;102525;-66
2022/07/16 09:47:50;;;;;;;2.77;2.07;;;;;;;24.02;49.40;96745.78;5070350;27;103255;-67
2022/07/16 09:50:18;;;;;;;2.60;1.90;;;;;;;24.16;56.47;96740.13;5052480;27;101952;-66
2022/07/16 09:52:45;;;;;;;2.67;1.80;;;;;;;24.52;56.46;96743.91;5052686;27;105144;-67
2022/07/16 09:55:13;;;;;;;3.37;1.80;;;;;;;24.61;52.67;96735.72;5073981;27;102604;-67
2022/07/16 09:57:42;;;;;;;4.07;2.20;;;;;;;24.21;51.03;96748.09;5052208;27;105918;-67
2022/07/16 10:00:10;;;;;;;2.07;1.87;;;;;;;24.23;53.83;96740.41;5051896;27;105558;-67
2022/07/16 10:02:44;;;;;;;2.93;2.00;;;;;;;23.91;53.16;96738.31;5052516;27;101935;-67
2022/07/16 10:05:11;;;;;;;2.90;2.20;;;;;;;24.12;51.25;96742.72;5052376;27;105525;-67
2022/07/16 10:07:38;;;;;;;2.53;2.00;;;;;;;24.89;49.16;96739.50;5051587;27;105497;-67
2022/07/16 10:10:07;;;;;;;1.97;1.87;;;;;;;24.84;51.75;96739.72;5052332;27;102114;-66
2022/07/16 10:12:36;;;;;;;2.40;2.13;;;;;;;25.32;50.09;96739.94;5069939;27;102361;-67
2022/07/16 10:15:03;;;;;;;2.87;1.90;;;;;;;24.97;51.77;96733.19;5051616;27;106093;-67
2022/07/16 10:17:37;;;;;;;2.70;2.10;;;;;;;24.87;51.38;96737.13;5055757;27;102039;-66
2022/07/16 10:20:08;;;;;;;2.10;2.00;;;;;;;25.17;52.44;96740.53;5051577;27;104077;-67
2022/07/16 10:22:37;;;;;;;2.00;1.90;;;;;;;25.67;47.53;96741.16;5052079;27;101845;-67
2022/07/16 10:25:12;;;;;;;2.87;1.77;;;;;;;25.81;51.43;96744.34;5052112;27;105127;-67
2022/07/16 10:27:42;;;;;;;2.20;2.00;;;;;;;25.93;47.62;96741.69;5051397;27;105808;-67
2022/07/16 10:30:18;;;;;;;2.27;1.90;;;;;;;26.49;48.94;96743.50;5070436;27;101747;-67
2022/07/16 10:33:18;;;;;;;5.90;1.90;;;;;;;25.80;47.70;96745.50;5051863;27;105182;-67
2022/07/16 10:35:48;;;;;;;3.50;1.80;;;;;;;26.50;45.17;96734.16;5043231;27;104615;-67
2022/07/16 10:38:18;;;;;;;2.77;1.83;;;;;;;26.09;47.00;96732.50;5070690;27;101917;-67
2022/07/16 10:40:47;;;;;;;2.80;2.10;;;;;;;26.11;44.83;96730.22;5073250;27;102839;-67
2022/07/16 10:43:18;;;;;;;2.47;1.90;;;;;;;26.50;52.32;96723.25;5070405;27;101861;-67
2022/07/16 10:45:54;;;;;;;2.00;1.73;;;;;;;26.70;46.25;96731.31;5072652;27;101704;-67
2022/07/16 10:48:25;;;;;;;4.77;1.80;;;;;;;25.76;44.77;96731.75;5073350;27;103218;-67
2022/07/16 10:51:15;;;;;;;2.17;2.00;;;;;;;25.79;48.10;96727.56;5073951;27;101724;-67
2022/07/16 10:54:29;;;;;;;2.87;1.90;;;;;;;25.36;44.91;96719.88;5055473;27;103719;-67
2022/07/16 10:56:59;;;;;;;2.10;1.90;;;;;;;25.70;44.41;96727.66;5073349;27;101927;-67
2022/07/16 10:59:30;;;;;;;2.00;1.90;;;;;;;26.38;44.31;96734.19;5073699;27;102035;-67
2022/07/16 11:01:59;;;;;;;2.70;2.00;;;;;;;26.23;45.35;96718.50;5055219;27;105250;-67
2022/07/16 11:04:36;;;;;;;2.37;2.10;;;;;;;27.10;42.44;96718.47;5076447;27;102839;-67
2022/07/16 11:07:07;;;;;;;2.90;2.17;;;;;;;26.87;42.10;96713.88;5054275;27;105344;-67
2022/07/16 11:09:36;;;;;;;2.97;2.10;;;;;;;26.99;41.47;96714.63;5072787;27;102813;-67
2022/07/16 11:12:10;;;;;;;2.50;1.97;;;;;;;26.48;45.26;96711.91;5054147;27;101770;-67
2022/07/16 11:14:40;;;;;;;2.97;1.93;;;;;;;27.05;41.07;96721.44;5055106;27;103886;-67
2022/07/16 11:17:07;;;;;;;1.97;1.73;;;;;;;27.81;44.40;96715.72;5072934;27;103100;-67
2022/07/16 11:19:43;;;;;;;2.20;1.80;;;;;;;27.68;40.28;96719.66;5073172;27;101896;-67
2022/07/16 11:22:11;;;;;;;2.33;2.03;;;;;;;27.32;44.46;96706.19;5073446;27;102329;-67
2022/07/16 11:24:45;;;;;;;1.83;1.73;;;;;;;28.30;40.81;96717.72;5072565;27;102623;-67
2022/07/16 11:27:13;;;;;;;4.50;2.10;;;;;;;27.93;40.46;96713.72;5057649;27;101789;-67
2022/07/16 11:29:42;;;;;;;2.27;2.03;;;;;;;28.25;40.64;96704.31;5072633;27;101733;-67